Time;durP1;ratioP1;P1;durP2;ratioP2;P2;SDS_P1;SDS_P2;PMS_P1;PMS_P2;Temp;Humidity;BMP_temperature;BMP_pressure;BME280_temperature;BME280_humidity;BME280_pressure;Samples;Min_cycle;Max_cycle;Signal;HPM_P1;HPM_P2
2022/05/07 00:00:48;;;;;;;393.75;368.60;;;12.70;99.90;;;12.65;94.51;100527.50;4914367;28;20333;-64
2022/05/07 00:03:16;;;;;;;420.00;389.48;;;12.70;99.90;;;12.55;95.43;100529.25;4933664;28;20204;-64
2022/05/07 00:05:44;;;;;;;401.60;375.60;;;12.60;99.90;;;12.48;96.19;100540.72;4922243;28;20213;-65
2022/05/07 00:08:12;;;;;;;393.27;369.10;;;12.60;99.90;;;12.49;95.41;100538.06;4921686;28;20217;-65
2022/05/07 00:10:42;;;;;;;389.42;362.17;;;12.60;99.90;;;11.99;99.96;100535.22;4921307;28;20218;-64
2022/05/07 00:13:10;;;;;;;384.30;357.02;;;12.50;99.90;;;11.51;100.00;100557.84;4947168;28;20213;-64
2022/05/07 00:15:38;;;;;;;372.60;343.75;;;12.30;99.90;;;11.44;100.00;100585.16;4916036;28;20256;-64
2022/05/07 00:18:10;;;;;;;342.67;317.02;;;;;;;11.28;100.00;100599.13;4945255;28;20716;-64
2022/05/07 00:20:39;;;;;;;374.88;349.10;;;12.00;99.90;;;11.30;100.00;100623.84;4931692;28;20241;-64
2022/05/07 00:23:06;;;;;;;397.25;367.63;;;11.90;99.90;;;11.42;100.00;100650.44;4917342;28;20205;-64
2022/05/07 00:25:34;;;;;;;399.70;370.33;;;11.90;99.90;;;11.34;100.00;100644.19;4899357;28;20210;-64
2022/05/07 00:28:02;;;;;;;416.65;386.20;;;11.80;99.90;;;11.08;100.00;100641.28;4917775;28;20299;-64
2022/05/07 00:30:30;;;;;;;435.45;402.98;;;11.70;99.90;;;10.95;100.00;100646.44;4896687;28;20236;-64
2022/05/07 00:32:58;;;;;;;424.30;391.65;;;11.60;99.90;;;10.75;100.00;100660.34;4950270;28;20232;-64
2022/05/07 00:35:26;;;;;;;384.05;357.27;;;11.40;99.90;;;10.49;100.00;100675.00;4917811;28;20201;-64
2022/05/07 00:37:54;;;;;;;392.58;364.33;;;11.30;99.90;;;10.43;100.00;100715.47;4918445;28;20212;-64
2022/05/07 00:40:22;;;;;;;405.50;375.48;;;11.10;99.90;;;10.53;100.00;100741.16;4916225;29;20241;-64
2022/05/07 00:42:49;;;;;;;445.05;409.80;;;11.10;99.90;;;10.53;100.00;100759.69;4936691;28;20213;-64
2022/05/07 00:45:18;;;;;;;429.83;395.30;;;11.10;99.90;;;10.60;100.00;100765.06;4939160;28;20213;-64
2022/05/07 00:47:45;;;;;;;417.63;385.52;;;11.00;99.90;;;10.52;100.00;100771.13;4935995;28;20666;-64
2022/05/07 00:53:01;;;;;;;406.80;373.52;;;11.10;99.90;;;10.38;100.00;100787.63;4931334;28;20213;-64
2022/05/07 00:55:31;;;;;;;398.98;367.08;;;11.00;99.90;;;10.44;100.00;100809.78;4921111;28;20214;-64
2022/05/07 00:57:59;;;;;;;409.90;376.13;;;11.00;99.90;;;10.40;100.00;100818.53;4928986;28;20217;-64
2022/05/07 01:00:27;;;;;;;392.60;363.10;;;10.90;99.90;;;10.37;100.00;100826.38;4930680;28;20230;-64
2022/05/07 01:02:56;;;;;;;380.10;351.05;;;10.90;99.90;;;10.12;100.00;100817.13;4936903;28;20213;-64
2022/05/07 01:05:24;;;;;;;410.88;375.23;;;10.70;99.90;;;10.08;100.00;100838.19;4903234;28;20205;-64
2022/05/07 01:07:54;;;;;;;378.02;347.95;;;10.70;99.90;;;10.07;100.00;100862.81;4917909;28;20220;-64
2022/05/07 01:10:23;;;;;;;384.80;352.83;;;10.60;99.90;;;10.10;100.00;100870.81;4888045;28;20240;-64
2022/05/07 01:12:57;;;;;;;379.15;349.35;;;10.60;99.90;;;10.10;100.00;100886.66;4933246;28;20214;-64
2022/05/07 01:15:25;;;;;;;372.45;342.95;;;10.60;99.90;;;10.21;100.00;100896.59;4927944;28;20692;-64
2022/05/07 01:17:54;;;;;;;369.92;343.10;;;10.60;99.90;;;9.93;100.00;100881.06;4945814;28;20724;-64
2022/05/07 01:20:23;;;;;;;380.38;349.70;;;10.70;99.90;;;9.82;100.00;100886.16;4954988;28;20229;-64
2022/05/07 01:22:52;;;;;;;385.63;353.02;;;10.50;99.90;;;9.81;100.00;100901.97;4920538;28;20209;-64
2022/05/07 01:25:25;;;;;;;380.92;348.63;;;10.50;99.90;;;9.60;100.00;100899.81;4929897;28;20638;-64
2022/05/07 01:27:53;;;;;;;380.10;347.98;;;10.40;99.90;;;9.73;100.00;100935.28;4905009;28;20209;-64
2022/05/07 01:30:24;;;;;;;364.15;335.17;;;10.30;99.90;;;9.88;100.00;100944.41;4919065;28;20229;-64
2022/05/07 01:32:52;;;;;;;350.92;323.85;;;10.30;99.90;;;10.06;100.00;100953.53;4923620;28;20580;-63
2022/05/07 01:35:21;;;;;;;374.02;341.63;;;10.40;99.90;;;9.79;100.00;100935.41;4919468;28;20216;-64
2022/05/07 01:37:53;;;;;;;364.20;332.50;;;10.40;99.90;;;9.83;100.00;100947.81;4916888;28;20252;-64
2022/05/07 01:40:22;;;;;;;345.38;318.73;;;10.30;99.90;;;9.61;100.00;100957.94;4924288;28;20319;-64
2022/05/07 01:42:54;;;;;;;366.02;334.55;;;6.40;99.90;;;9.61;100.00;100962.31;4905499;28;20243;-64
2022/05/07 01:45:23;;;;;;;362.65;331.38;;;10.10;99.90;;;9.70;100.00;100988.03;4889692;28;20209;-64
2022/05/07 01:48:11;;;;;;;333.10;307.10;;;10.20;99.90;;;9.63;100.00;100993.19;4951841;28;20205;-64
2022/05/07 01:50:46;;;;;;;350.33;318.63;;;10.10;99.90;;;9.57;100.00;100995.69;4936710;28;20224;-64
2022/05/07 01:53:18;;;;;;;362.50;330.02;;;10.00;99.90;;;9.63;100.00;101010.78;4913303;28;20231;-64
2022/05/07 01:55:49;;;;;;;356.77;325.33;;;10.00;99.90;;;9.51;100.00;101002.59;4891030;28;20217;-64
2022/05/07 01:58:20;;;;;;;363.20;330.23;;;10.00;99.90;;;9.70;100.00;101032.94;4917138;28;20228;-64
2022/05/07 02:00:49;;;;;;;348.80;318.45;;;10.00;99.90;;;9.45;100.00;101013.91;4915942;28;20214;-64
2022/05/07 02:03:17;;;;;;;317.77;291.48;;;9.90;99.90;;;9.52;100.00;101036.94;4916087;28;20209;-64
2022/05/07 02:05:45;;;;;;;339.60;308.33;;;9.90;99.90;;;9.71;100.00;101059.38;4926884;28;20213;-64
2022/05/07 02:08:14;;;;;;;285.80;265.10;;;10.10;99.90;;;9.73;100.00;101051.47;4916327;28;20205;-64
2022/05/07 02:10:42;;;;;;;311.17;284.63;;;10.00;99.90;;;9.53;100.00;101046.66;4910777;28;20227;-64
2022/05/07 02:13:10;;;;;;;308.67;281.10;;;10.00;99.90;;;9.60;100.00;101064.41;4888782;28;20209;-64
2022/05/07 02:15:38;;;;;;;312.83;284.70;;;10.00;99.90;;;9.71;100.00;101069.03;4896375;28;20585;-64
2022/05/07 02:18:07;;;;;;;287.23;261.95;;;10.10;99.90;;;9.77;100.00;101070.06;4899826;28;20201;-64
2022/05/07 02:20:35;;;;;;;279.33;255.07;;;10.00;99.90;;;9.80;100.00;101095.66;4943055;28;20209;-64
2022/05/07 02:23:03;;;;;;;291.80;270.75;;;10.10;99.90;;;9.75;100.00;101090.28;4927893;28;20235;-63
2022/05/07 02:25:31;;;;;;;313.27;286.95;;;10.10;99.90;;;9.56;100.00;101078.41;4936595;28;20217;-63
2022/05/07 02:28:03;;;;;;;308.33;283.77;;;10.00;99.90;;;9.67;100.00;101102.41;4953259;28;20210;-63
2022/05/07 02:30:31;;;;;;;324.05;295.63;;;10.00;99.90;;;9.66;100.00;101103.28;4913349;28;20233;-63
2022/05/07 02:33:04;;;;;;;327.00;298.27;;;10.00;99.90;;;9.56;100.00;101104.81;4929533;28;20225;-63
2022/05/07 02:35:35;;;;;;;320.27;292.80;;;10.00;99.90;;;9.30;100.00;101106.81;4941227;28;20228;-63
2022/05/07 02:38:03;;;;;;;316.45;289.80;;;9.80;99.90;;;9.22;100.00;101104.84;4922528;28;20213;-64
2022/05/07 02:42:33;;;;;;;296.25;272.75;;;9.80;99.90;;;9.39;100.00;101132.56;4946715;28;20220;-63
2022/05/07 02:43:26;;;;;;;305.95;279.30;;;9.80;99.90;;;9.54;100.00;101119.72;4917560;28;20239;-64
2022/05/07 02:45:54;;;;;;;308.33;280.77;;;9.80;99.90;;;9.68;100.00;101104.19;4927829;28;20217;-64
2022/05/07 02:48:22;;;;;;;292.15;266.45;;;9.80;99.90;;;9.37;100.00;101089.38;4929277;28;20662;-64
2022/05/07 02:50:51;;;;;;;295.25;270.48;;;9.80;99.90;;;9.26;100.00;101094.41;4918743;28;20217;-64
2022/05/07 02:53:19;;;;;;;311.80;284.73;;;9.70;99.90;;;9.07;100.00;101123.78;4932676;28;20667;-64
2022/05/07 02:55:49;;;;;;;314.67;286.38;;;9.70;99.90;;;9.11;100.00;101137.97;4881051;28;20214;-64
2022/05/07 02:58:17;;;;;;;298.00;271.55;;;9.60;99.90;;;9.16;100.00;101150.44;4903594;28;20240;-63
2022/05/07 03:00:46;;;;;;;274.45;253.02;;;9.50;99.90;;;9.20;100.00;101161.97;4905187;28;20221;-64
2022/05/07 03:03:14;;;;;;;295.77;268.45;;;9.60;99.90;;;9.08;100.00;101162.50;4911638;28;20704;-64
2022/05/07 03:05:47;;;;;;;302.17;274.17;;;9.80;99.90;;;9.11;100.00;101173.19;4909023;28;20209;-64
2022/05/07 03:08:15;;;;;;;286.73;261.95;;;9.40;99.90;;;9.06;100.00;101174.78;4877742;28;20209;-63
2022/05/07 03:10:43;;;;;;;290.77;263.08;;;9.40;99.90;;;8.92;100.00;101179.66;4919272;28;20213;-64
2022/05/07 03:13:11;;;;;;;281.25;254.50;;;9.40;99.90;;;8.93;100.00;101192.00;4895977;28;20228;-63
2022/05/07 03:15:39;;;;;;;294.00;265.67;;;9.30;99.90;;;9.01;100.00;101199.25;4887645;28;20217;-64
2022/05/07 03:18:12;;;;;;;279.02;252.95;;;9.30;99.90;;;9.00;100.00;101198.34;4903941;28;20225;-64
2022/05/07 03:20:42;;;;;;;284.27;258.02;;;9.30;99.90;;;8.96;100.00;101196.47;4905263;28;20224;-63
2022/05/07 03:23:16;;;;;;;275.95;249.85;;;9.30;99.90;;;8.88;100.00;101195.38;4910489;28;20228;-63
2022/05/07 03:25:46;;;;;;;277.98;250.48;;;9.30;99.90;;;8.91;100.00;101212.19;4926911;28;20208;-63
2022/05/07 03:28:16;;;;;;;472.33;438.15;;;9.20;99.90;;;8.94;100.00;101216.66;4936077;28;20217;-63
2022/05/07 03:30:44;;;;;;;264.27;239.30;;;9.20;99.90;;;8.79;100.00;101210.94;4928464;28;20212;-63
2022/05/07 03:33:14;;;;;;;260.33;236.55;;;9.20;99.90;;;8.61;100.00;101221.84;4919349;28;20228;-63
2022/05/07 03:35:45;;;;;;;255.95;232.32;;;9.10;99.90;;;8.71;100.00;101242.38;4923885;28;20213;-63
2022/05/07 03:38:13;;;;;;;254.65;231.27;;;9.00;99.90;;;8.73;100.00;101255.59;4937781;28;20272;-63
2022/05/07 03:40:50;;;;;;;214.27;196.32;;;9.00;99.90;;;8.68;100.00;101255.47;4910083;28;20213;-64
2022/05/07 03:43:23;;;;;;;240.73;216.73;;;9.10;99.90;;;8.63;100.00;101267.63;4905031;28;20229;-63
2022/05/07 03:45:52;;;;;;;208.60;187.18;;;9.00;99.90;;;8.54;100.00;101267.34;4933890;28;20217;-63
2022/05/07 03:48:20;;;;;;;187.05;168.75;;;9.00;99.90;;;8.55;100.00;101282.31;4904362;28;20205;-63
2022/05/07 03:50:51;;;;;;;195.80;176.60;;;9.00;99.90;;;8.69;100.00;101299.44;4940616;28;20209;-63
2022/05/07 03:53:32;;;;;;;208.23;189.15;;;8.90;99.90;;;8.43;100.00;101296.00;4934007;28;20217;-63
2022/05/07 03:56:15;;;;;;;219.88;197.23;;;8.90;99.90;;;8.32;100.00;101292.09;4935418;28;20220;-63
2022/05/07 03:58:44;;;;;;;226.80;205.07;;;8.80;99.90;;;8.14;100.00;101291.50;4932018;28;20244;-63
2022/05/07 04:01:18;;;;;;;254.48;228.52;;;8.80;99.90;;;8.20;100.00;101303.13;4915156;28;20214;-63
2022/05/07 04:03:47;;;;;;;240.65;220.57;;;8.70;99.90;;;8.47;100.00;101341.81;4933477;28;20229;-63
2022/05/07 04:06:16;;;;;;;237.30;217.52;;;8.70;99.90;;;8.29;100.00;101323.63;4902402;28;20209;-64
2022/05/07 04:08:45;;;;;;;252.48;228.77;;;8.70;99.90;;;8.50;100.00;101323.44;4897657;28;20236;-64
2022/05/07 04:11:14;;;;;;;269.50;244.30;;;8.70;99.90;;;8.66;100.00;101323.06;4902087;28;20209;-63
2022/05/07 04:13:42;;;;;;;282.58;253.32;;;8.80;99.90;;;8.50;100.00;101316.44;4918751;28;20217;-63
2022/05/07 04:16:11;;;;;;;261.63;237.35;;;8.80;99.90;;;8.47;100.00;101315.44;4927350;28;20220;-63
2022/05/07 04:18:54;;;;;;;236.98;216.07;;;8.70;99.90;;;8.48;100.00;101323.41;4910934;28;20233;-63
2022/05/07 04:21:24;;;;;;;250.18;226.27;;;8.70;99.90;;;8.60;100.00;101322.88;4897715;28;20218;-63
2022/05/07 04:23:52;;;;;;;258.17;233.48;;;8.70;99.90;;;8.33;100.00;101315.91;4883042;28;20229;-63
2022/05/07 04:26:19;;;;;;;255.55;230.48;;;8.60;99.90;;;8.48;100.00;101323.41;4914120;28;20220;-63
2022/05/07 04:28:50;;;;;;;361.08;331.83;;;8.60;99.90;;;8.59;100.00;101340.44;4914968;28;20724;-63
2022/05/07 04:31:19;;;;;;;294.83;269.95;;;8.60;99.90;;;8.59;100.00;101329.91;4899803;28;20217;-64
2022/05/07 04:33:55;;;;;;;237.82;214.57;;;8.70;99.90;;;8.50;100.00;101323.44;4905080;28;20217;-63
2022/05/07 04:36:25;;;;;;;240.20;217.07;;;8.70;99.90;;;8.59;100.00;101345.72;4898200;28;20209;-64
2022/05/07 04:38:57;;;;;;;242.40;219.73;;;8.70;99.90;;;8.67;100.00;101343.31;4939843;28;20236;-63
2022/05/07 04:41:30;;;;;;;244.15;220.90;;;9.70;99.90;;;8.66;100.00;101336.25;4934122;28;20221;-63
2022/05/07 04:43:58;;;;;;;245.18;221.60;;;8.70;99.90;;;8.72;100.00;101332.91;4933847;28;20221;-63
2022/05/07 04:46:26;;;;;;;245.48;222.65;;;8.70;99.90;;;8.75;100.00;101331.28;4932954;28;20658;-63
2022/05/07 04:49:02;;;;;;;238.15;216.60;;;8.80;99.90;;;8.84;100.00;101330.66;4921109;28;20232;-63
2022/05/07 04:51:31;;;;;;;241.40;218.43;;;8.80;99.90;;;8.98;100.00;101330.22;4936789;28;20198;-63
2022/05/07 04:54:19;;;;;;;226.10;205.15;;;8.90;99.90;;;8.98;100.00;101298.56;4904805;28;20217;-64
2022/05/07 04:56:52;;;;;;;242.48;218.30;;;8.90;99.90;;;8.99;100.00;101315.28;4925255;28;20217;-64
2022/05/07 04:59:31;;;;;;;223.23;203.45;;;9.00;99.90;;;9.04;100.00;101323.31;4916916;28;20237;-63
2022/05/07 05:02:10;;;;;;;240.27;217.85;;;9.00;99.90;;;9.15;100.00;101304.34;4887215;28;21253;-63
2022/05/07 05:04:40;;;;;;;229.60;209.32;;;9.10;99.90;;;9.21;100.00;101307.16;4915960;28;20706;-64
2022/05/07 05:07:13;;;;;;;231.63;210.35;;;9.10;99.90;;;9.23;100.00;101326.56;4933918;28;20205;-64
2022/05/07 05:09:44;;;;;;;207.68;190.57;;;9.20;99.90;;;9.35;100.00;101315.47;4937932;28;20302;-64
2022/05/07 05:12:17;;;;;;;255.23;229.88;;;9.20;99.90;;;9.44;100.00;101304.28;4927941;28;20215;-63
2022/05/07 05:15:08;;;;;;;282.77;255.80;;;9.40;99.90;;;9.50;100.00;101299.16;4917671;28;20197;-63
2022/05/07 05:17:50;;;;;;;286.95;258.85;;;9.40;99.90;;;9.60;100.00;101288.00;4936119;28;20220;-64
2022/05/07 05:20:20;;;;;;;276.98;251.10;;;9.50;99.90;;;9.74;100.00;101268.13;4918724;28;20564;-63
2022/05/07 05:23:08;;;;;;;285.55;259.75;;;9.60;99.90;;;9.89;100.00;101255.28;4953946;28;20225;-63
2022/05/07 05:25:47;;;;;;;294.10;266.00;;;9.60;99.90;;;9.99;100.00;101266.97;4917994;28;20205;-63
2022/05/07 05:28:26;;;;;;;307.60;277.50;;;9.90;99.90;;;10.14;100.00;101271.75;4906486;28;20210;-64
2022/05/07 05:31:03;;;;;;;314.85;284.73;;;9.80;99.90;;;10.26;100.00;101261.50;4900778;28;20209;-63
2022/05/07 05:33:34;;;;;;;304.63;277.25;;;9.90;99.90;;;10.46;100.00;101276.09;4904526;28;20228;-63
2022/05/07 05:36:11;;;;;;;325.83;293.77;;;9.60;99.90;;;10.58;100.00;101255.22;4935348;28;20209;-63
2022/05/07 05:38:42;;;;;;;318.58;288.85;;;10.00;99.90;;;10.68;100.00;101256.31;4937539;28;20248;-64
2022/05/07 05:41:13;;;;;;;334.58;301.75;;;10.10;99.90;;;10.78;100.00;101247.69;4931105;28;20213;-64
2022/05/07 05:43:45;;;;;;;328.65;298.75;;;10.20;99.90;;;10.92;100.00;101241.81;4892518;28;20229;-64
2022/05/07 05:46:14;;;;;;;322.27;293.27;;;10.30;99.90;;;11.13;100.00;101252.81;4930795;28;20209;-64
2022/05/07 05:48:45;;;;;;;312.23;284.70;;;10.30;99.90;;;11.30;100.00;101240.81;4913947;28;20232;-64
2022/05/07 05:51:13;;;;;;;319.92;291.08;;;10.40;99.90;;;11.50;100.00;101235.88;4911106;28;20232;-64
2022/05/07 05:53:52;;;;;;;359.98;324.38;;;10.50;99.90;;;11.49;100.00;101236.72;4881187;28;20213;-64
2022/05/07 05:56:25;;;;;;;326.70;296.98;;;10.70;99.90;;;11.77;100.00;101260.25;4931808;28;20213;-64
2022/05/07 05:58:57;;;;;;;321.55;294.48;;;10.80;99.90;;;11.81;100.00;101246.19;4918264;28;20232;-64
2022/05/07 06:01:43;;;;;;;344.33;314.48;;;11.00;99.90;;;11.98;100.00;101265.03;4923620;28;20212;-64
2022/05/07 06:04:17;;;;;;;328.95;302.42;;;11.20;99.90;;;11.95;100.00;101258.78;4901631;28;20231;-64
2022/05/07 06:06:47;;;;;;;335.17;308.80;;;11.30;99.90;;;11.92;100.00;101256.97;4901812;28;20232;-64
2022/05/07 06:09:15;;;;;;;326.98;301.95;;;11.40;99.90;;;12.11;100.00;101269.66;4922731;28;20232;-64
2022/05/07 06:11:46;;;;;;;334.63;308.65;;;11.50;99.90;;;12.14;100.00;101256.47;4937080;28;20209;-64
2022/05/07 06:14:15;;;;;;;335.63;310.05;;;11.60;99.90;;;12.33;100.00;101267.34;4915303;28;20213;-64
2022/05/07 06:16:44;;;;;;;349.75;322.90;;;11.70;99.90;;;12.56;100.00;101267.69;4926262;28;20248;-64
2022/05/07 06:19:14;;;;;;;328.95;302.77;;;11.80;99.90;;;12.75;100.00;101261.75;4912025;28;20240;-64
2022/05/07 06:21:51;;;;;;;332.65;307.00;;;12.00;99.90;;;12.71;100.00;101242.25;4919815;28;20287;-64
2022/05/07 06:27:28;;;;;;;364.75;336.05;;;12.30;99.90;;;13.13;100.00;101241.03;4943636;28;20212;-64
2022/05/07 06:30:05;;;;;;;364.08;336.58;;;12.40;99.90;;;13.27;100.00;101214.66;4933647;28;20233;-64
2022/05/07 06:32:42;;;;;;;381.42;352.13;;;12.60;99.90;;;13.43;100.00;101182.94;4944485;28;20246;-64
2022/05/07 06:35:11;;;;;;;380.75;353.08;;;12.70;99.90;;;13.51;100.00;101151.13;4942816;28;20214;-64
2022/05/07 06:38:16;;;;;;;329.33;308.33;;;12.80;99.90;;;13.57;100.00;101121.03;4893382;29;20214;-64
2022/05/07 06:40:49;;;;;;;355.30;329.90;;;13.00;99.90;;;13.73;100.00;101110.53;4928049;28;20217;-64
2022/05/07 06:43:17;;;;;;;343.42;319.25;;;13.10;99.90;;;13.79;100.00;101091.06;4936742;28;20592;-64
2022/05/07 06:46:05;;;;;;;344.00;321.23;;;13.30;99.90;;;13.95;100.00;101090.28;4909189;28;20209;-64
2022/05/07 06:48:41;;;;;;;382.77;355.88;;;13.40;99.90;;;14.22;100.00;101099.28;4932879;28;20233;-64
2022/05/07 06:51:16;;;;;;;401.23;371.67;;;13.60;99.90;;;14.24;100.00;101090.44;4933118;28;20217;-64
2022/05/07 06:53:44;;;;;;;422.83;393.70;;;13.80;99.90;;;14.22;100.00;101080.66;4899087;28;20227;-64
2022/05/07 06:56:11;;;;;;;490.67;455.98;;;14.00;99.90;;;14.41;100.00;101086.09;4919377;28;20612;-64
2022/05/07 06:58:41;;;;;;;390.45;364.88;;;14.10;99.90;;;14.07;100.00;101045.13;4937639;28;20233;-64
2022/05/07 07:01:10;;;;;;;346.83;323.90;;;14.10;99.90;;;14.36;100.00;101060.34;4907357;28;20554;-64
2022/05/07 07:03:39;;;;;;;344.40;319.40;;;14.20;99.90;;;14.55;100.00;101051.56;4922094;28;20229;-64
2022/05/07 07:06:07;;;;;;;365.27;341.30;;;14.30;99.90;;;14.87;100.00;101061.41;4931997;28;20217;-64
2022/05/07 07:08:35;;;;;;;396.00;367.60;;;14.50;99.90;;;14.94;100.00;101025.91;4927663;28;20229;-64
2022/05/07 07:11:05;;;;;;;409.92;382.33;;;14.60;99.90;;;15.23;100.00;101034.78;4930623;28;20673;-64
2022/05/07 07:13:33;;;;;;;431.33;401.48;;;14.70;99.90;;;15.18;98.77;100979.72;4888972;28;20220;-64
2022/05/07 07:16:01;;;;;;;451.20;423.00;;;14.90;99.90;;;15.24;98.61;100977.03;4915907;28;20210;-64
2022/05/07 07:18:31;;;;;;;423.15;396.77;;;15.00;99.90;;;15.56;99.23;101007.19;4919835;28;20600;-64
2022/05/07 07:21:00;;;;;;;394.77;369.30;;;15.10;99.90;;;15.47;99.08;100987.66;4907781;28;20205;-64
2022/05/07 07:23:28;;;;;;;426.92;398.55;;;15.20;99.90;;;15.62;99.13;100987.69;4920922;28;20209;-64
2022/05/07 07:25:57;;;;;;;413.95;386.67;;;15.60;99.90;;;16.01;100.00;101016.00;4896029;28;20213;-64
2022/05/07 07:28:25;;;;;;;375.63;351.20;;;15.70;99.90;;;15.63;96.30;100944.16;4888805;28;20217;-64
2022/05/07 07:30:53;;;;;;;380.05;360.55;;;15.70;99.90;;;16.00;97.47;100976.88;4889535;28;20217;-64
2022/05/07 07:33:22;;;;;;;344.40;327.27;;;15.80;99.90;;;15.81;97.23;100954.75;4931249;28;20220;-64
2022/05/07 07:35:50;;;;;;;355.27;335.80;;;15.80;99.90;;;16.08;98.00;100976.84;4933739;28;20221;-64
2022/05/07 07:38:27;;;;;;;409.17;381.90;;;16.20;99.90;;;16.55;96.22;100974.78;4925762;28;20213;-64
2022/05/07 07:40:56;;;;;;;377.60;355.77;;;16.30;99.90;;;16.43;97.63;100955.28;4918596;28;20209;-64
2022/05/07 07:43:24;;;;;;;384.40;359.52;;;16.40;99.90;;;16.12;96.17;100918.13;4908501;28;20214;-64
2022/05/07 07:48:39;;;;;;;420.08;392.52;;;16.40;99.90;;;17.10;94.91;100949.47;4943881;28;20305;-64
2022/05/07 07:51:08;;;;;;;474.30;444.33;;;16.90;99.90;;;17.01;94.11;100922.84;4921385;29;20234;-64
2022/05/07 07:53:38;;;;;;;475.65;445.15;;;17.00;99.90;;;17.34;93.07;100914.47;4933019;28;20220;-64
2022/05/07 07:56:07;;;;;;;459.20;430.00;;;17.40;99.90;;;17.21;91.37;100864.72;4930596;28;20264;-64
2022/05/07 07:58:36;;;;;;;489.95;457.98;;;17.60;99.90;;;16.77;92.58;100833.09;4931758;28;20237;-64
2022/05/07 08:01:03;;;;;;;535.72;501.00;;;17.30;99.90;;;17.21;92.32;100872.75;4903209;28;20677;-64
2022/05/07 08:03:31;;;;;;;564.20;530.85;;;17.40;99.90;;;17.76;90.86;100889.03;4906971;28;20209;-64
2022/05/07 08:06:00;;;;;;;600.70;562.05;;;17.70;99.90;;;17.34;89.57;100803.97;4926576;28;20256;-64
2022/05/07 08:14:01;;;;;;;594.85;558.60;;;17.90;99.90;;;17.38;90.47;100811.06;4950068;28;20220;-64
2022/05/07 08:16:29;;;;;;;756.55;711.78;;;18.30;99.90;;;18.34;87.41;100829.31;4941197;28;20216;-64
2022/05/07 08:18:58;;;;;;;710.22;668.30;;;18.50;99.90;;;17.83;87.20;100764.97;4905067;28;20225;-64
2022/05/07 08:21:27;;;;;;;640.15;601.38;;;18.40;99.90;;;17.96;88.97;100802.25;4921973;28;20205;-64
2022/05/07 08:23:55;;;;;;;723.78;679.63;;;18.60;99.90;;;18.78;87.73;100850.00;4906019;28;20225;-64
2022/05/07 08:26:24;;;;;;;745.85;703.20;;;;;;;18.52;82.49;100712.94;4935124;28;20256;-64
2022/05/07 08:28:53;;;;;;;785.13;736.47;;;;;;;18.73;83.00;100727.75;4935487;28;20240;-64
2022/05/07 08:31:24;;;;;;;688.80;647.67;;;19.70;99.90;;;18.36;80.38;100637.38;4937045;28;20213;-64
2022/05/07 08:33:54;;;;;;;752.33;708.95;;;19.80;99.90;;;19.35;81.99;100739.84;4933426;28;20205;-64
2022/05/07 08:36:22;;;;;;;596.47;560.38;;;19.90;99.90;;;18.55;78.02;100571.81;4940435;28;20206;-64
2022/05/07 08:38:50;;;;;;;763.22;720.60;;;15.90;99.90;;;18.96;78.83;100623.66;4920049;28;20236;-64
2022/05/07 08:41:18;;;;;;;612.13;574.70;;;20.10;99.90;;;18.82;80.14;100620.41;4907691;28;20220;-64
2022/05/07 08:43:47;;;;;;;898.63;843.45;;;;;;;19.86;78.06;100688.63;4936800;28;20216;-65
2022/05/07 08:46:18;;;;;;;479.15;446.45;;;20.50;99.90;;;19.76;76.66;100633.41;4941273;28;20220;-65
2022/05/07 08:48:49;;;;;;;152.98;137.73;;;20.70;99.90;;;19.93;78.41;100633.88;4952569;28;20233;-64
2022/05/07 08:51:20;;;;;;;162.27;147.63;;;21.10;99.90;;;19.99;75.40;100593.44;4937798;28;20204;-65
2022/05/07 08:53:53;;;;;;;316.30;293.45;;;21.70;99.90;;;20.61;75.05;100609.63;4908615;28;20293;-65
2022/05/07 08:56:22;;;;;;;568.33;532.35;;;21.70;99.90;;;19.59;70.28;100395.09;4929569;28;20653;-65
2022/05/07 08:58:53;;;;;;;542.55;505.92;;;21.40;99.90;;;19.99;69.46;100421.63;4901806;28;20241;-65
2022/05/07 09:01:21;;;;;;;465.73;434.55;;;21.30;99.90;;;20.54;70.77;100500.56;4952981;28;20211;-64
2022/05/07 09:03:50;;;;;;;584.40;547.33;;;21.40;99.90;;;21.67;69.87;100566.84;4894404;28;20219;-65
2022/05/07 09:06:26;;;;;;;934.60;876.08;;;22.70;99.90;;;21.98;66.59;100451.72;4938987;28;20225;-65
2022/05/07 09:08:56;;;;;;;1025.45;961.42;;;22.90;99.90;;;20.31;71.20;100315.03;4927537;28;20216;-65
2022/05/07 09:11:44;;;;;;;1018.75;954.20;;;23.30;99.90;;;21.35;68.78;100422.66;4952497;28;20219;-65
2022/05/07 09:14:18;;;;;;;944.67;889.80;;;;;;;21.69;67.37;100401.66;4917224;28;20208;-65
2022/05/07 09:16:49;;;;;;;912.05;859.53;;;24.10;99.90;;;21.66;68.29;100411.66;4930624;28;20216;-65
2022/05/07 09:19:28;;;;;;;721.47;678.28;;;24.10;99.90;;;21.31;66.79;100279.31;4941962;28;20221;-65
2022/05/07 09:22:10;;;;;;;600.28;562.80;;;23.50;99.90;;;20.72;71.01;100311.00;4942172;28;20598;-64
2022/05/07 09:24:52;;;;;;;744.38;700.25;;;22.80;99.90;;;20.48;69.13;100239.28;4960542;28;20716;-64
2022/05/07 09:27:46;;;;;;;790.00;741.83;;;22.80;99.90;;;21.51;68.89;100379.94;4936329;28;20209;-64
2022/05/07 09:30:36;;;;;;;824.38;775.13;;;23.60;99.90;;;21.99;67.43;100394.25;4961940;28;20212;-64
2022/05/07 09:33:33;;;;;;;707.33;662.65;;;24.30;99.90;;;21.76;66.51;100301.84;4959945;28;20219;-64
2022/05/07 09:36:24;;;;;;;716.63;673.15;;;24.20;99.90;;;21.84;69.27;100332.91;4948357;28;20216;-65
2022/05/07 09:39:16;;;;;;;552.15;517.70;;;24.00;99.90;;;21.48;66.33;100213.25;4953122;28;20228;-65
2022/05/07 09:42:07;;;;;;;603.60;567.80;;;23.60;99.90;;;21.80;66.06;100245.13;4947070;28;20220;-65
2022/05/07 09:44:55;;;;;;;653.63;611.95;;;23.90;99.90;;;21.95;65.32;100251.72;4934108;28;20209;-65
2022/05/07 09:47:45;;;;;;;470.52;439.38;;;24.10;99.90;;;21.84;67.05;100224.34;4955277;28;20216;-65
2022/05/07 09:59:26;;;;;;;572.38;535.78;;;24.40;99.90;;;21.84;63.28;100079.84;4950803;28;20712;-65
2022/05/07 10:02:39;;;;;;;636.67;596.30;;;24.40;99.90;;;23.14;64.70;100284.41;4943328;28;20207;-65
2022/05/07 10:06:25;;;;;;;778.72;729.70;;;25.40;99.90;;;23.17;65.26;100273.50;4954559;28;20367;-65
2022/05/07 10:09:58;;;;;;;773.30;724.38;;;25.00;99.90;;;22.83;63.28;100160.88;4954566;28;20250;-65
2022/05/07 10:12:48;;;;;;;780.75;732.15;;;;;;;22.49;62.64;100075.25;4948675;28;20220;-65
2022/05/07 10:15:36;;;;;;;841.80;790.17;;;24.60;99.90;;;23.25;64.32;100209.25;4949805;28;20228;-65
2022/05/07 10:18:43;;;;;;;447.67;419.63;;;24.50;99.90;;;23.94;62.18;100223.09;4946924;28;20695;-65
2022/05/07 10:21:33;;;;;;;843.95;790.45;;;;;;;23.84;61.38;100136.25;4945497;28;20212;-65
2022/05/07 10:24:22;;;;;;;479.70;440.13;;;25.70;99.90;;;23.44;57.01;99977.22;4940520;28;20242;-65
2022/05/07 10:26:50;;;;;;;592.83;555.28;;;26.10;99.90;;;24.71;55.57;100085.78;4923727;28;20236;-65
2022/05/07 10:29:38;;;;;;;634.92;592.40;;;26.60;99.90;;;24.83;59.19;100122.09;4949905;28;20224;-65
2022/05/07 10:32:27;;;;;;;618.03;579.30;;;26.60;99.90;;;24.63;62.74;100161.00;4970344;28;20235;-65
2022/05/07 10:35:15;;;;;;;662.42;621.50;;;27.10;99.90;;;24.68;57.13;100015.63;4971449;28;20577;-65
2022/05/07 10:38:36;;;;;;;364.23;337.77;;;26.60;99.30;;;23.94;54.99;99861.19;4949411;28;20672;-65